Mountain Park, Oklahoma
Current Conditions -  °F | °C
As of 5:58 PM on Friday 19 Dec 2014 (Local Time) from KLTS Reporting Station
Overcast Overcast  
Wind Chill: 44°   Ceiling: 2300
Heat Index: 44°   Visibility: 10mi
Dew Point: 40°   Wind: 2mph
Humidity: 86%   Direction: 130°SE
Pressure: 30.18"   Gusts: NA
Location:  34.7°N, 98.95°W
Report Text: KLTS 192358Z 13002KT 10SM OVC023 07/04 A3018 RMK AO2A SLP225 T00660044 10073 20060 53002 $
Loading
Personal Weather Stations






























Interactive Weather Map New forecast layout! Learn more

10-Day Weather Forecast

Advertisements
Track Severe Weather on mobile